sensor_id;sensor_type;location;lat;lon;timestamp;temperature;humidity
46926;DHT22;32667;48.248;-1.700;2022-12-10T00:01:24;2.10;78.40
46926;DHT22;32667;48.248;-1.700;2022-12-10T00:03:50;2.00;78.50
46926;DHT22;32667;48.248;-1.700;2022-12-10T00:06:18;2.00;78.70
46926;DHT22;32667;48.248;-1.700;2022-12-10T00:08:44;2.00;78.80
46926;DHT22;32667;48.248;-1.700;2022-12-10T00:11:12;2.00;78.80
46926;DHT22;32667;48.248;-1.700;2022-12-10T00:13:40;2.00;78.80
46926;DHT22;32667;48.248;-1.700;2022-12-10T00:16:08;2.00;78.80
46926;DHT22;32667;48.248;-1.700;2022-12-10T00:18:35;2.00;78.80
46926;DHT22;32667;48.248;-1.700;2022-12-10T00:21:10;1.90;78.70
46926;DHT22;32667;48.248;-1.700;2022-12-10T00:23:36;1.90;78.70
46926;DHT22;32667;48.248;-1.700;2022-12-10T00:26:07;1.90;78.80
46926;DHT22;32667;48.248;-1.700;2022-12-10T00:28:34;1.80;78.80
46926;DHT22;32667;48.248;-1.700;2022-12-10T00:31:08;1.80;78.90
46926;DHT22;32667;48.248;-1.700;2022-12-10T00:33:34;1.80;79.00
46926;DHT22;32667;48.248;-1.700;2022-12-10T00:36:16;1.80;79.00
46926;DHT22;32667;48.248;-1.700;2022-12-10T00:38:43;1.80;78.90
46926;DHT22;32667;48.248;-1.700;2022-12-10T00:41:10;1.90;78.90
46926;DHT22;32667;48.248;-1.700;2022-12-10T00:43:37;1.90;78.80
46926;DHT22;32667;48.248;-1.700;2022-12-10T00:46:03;1.90;78.70
46926;DHT22;32667;48.248;-1.700;2022-12-10T00:48:29;2.00;78.60
46926;DHT22;32667;48.248;-1.700;2022-12-10T00:53:26;2.00;78.40
46926;DHT22;32667;48.248;-1.700;2022-12-10T00:55:52;2.00;78.30
46926;DHT22;32667;48.248;-1.700;2022-12-10T00:58:19;1.90;78.40
46926;DHT22;32667;48.248;-1.700;2022-12-10T01:00:45;1.90;78.50
46926;DHT22;32667;48.248;-1.700;2022-12-10T01:03:19;1.90;78.60
46926;DHT22;32667;48.248;-1.700;2022-12-10T01:05:44;1.90;78.70
46926;DHT22;32667;48.248;-1.700;2022-12-10T01:08:10;1.80;78.70
46926;DHT22;32667;48.248;-1.700;2022-12-10T01:10:36;1.90;78.70
46926;DHT22;32667;48.248;-1.700;2022-12-10T01:13:03;1.80;78.60
46926;DHT22;32667;48.248;-1.700;2022-12-10T01:15:29;1.90;78.70
46926;DHT22;32667;48.248;-1.700;2022-12-10T01:17:54;1.80;78.60
46926;DHT22;32667;48.248;-1.700;2022-12-10T01:20:20;1.80;78.60
46926;DHT22;32667;48.248;-1.700;2022-12-10T01:22:46;1.80;78.70
46926;DHT22;32667;48.248;-1.700;2022-12-10T01:25:12;1.80;78.70
46926;DHT22;32667;48.248;-1.700;2022-12-10T01:27:38;1.90;78.70
46926;DHT22;32667;48.248;-1.700;2022-12-10T01:30:04;1.90;78.60
46926;DHT22;32667;48.248;-1.700;2022-12-10T01:32:32;1.80;78.60
46926;DHT22;32667;48.248;-1.700;2022-12-10T01:34:57;1.80;78.50
46926;DHT22;32667;48.248;-1.700;2022-12-10T01:37:23;1.80;78.60
46926;DHT22;32667;48.248;-1.700;2022-12-10T01:39:49;1.80;78.60
46926;DHT22;32667;48.248;-1.700;2022-12-10T01:42:15;1.80;78.60
46926;DHT22;32667;48.248;-1.700;2022-12-10T01:47:07;1.90;78.70
46926;DHT22;32667;48.248;-1.700;2022-12-10T01:49:38;1.90;78.60
46926;DHT22;32667;48.248;-1.700;2022-12-10T01:52:07;1.90;78.50
46926;DHT22;32667;48.248;-1.700;2022-12-10T01:54:39;1.90;78.40
46926;DHT22;32667;48.248;-1.700;2022-12-10T01:57:12;1.90;78.40
46926;DHT22;32667;48.248;-1.700;2022-12-10T01:59:40;1.90;78.40
46926;DHT22;32667;48.248;-1.700;2022-12-10T02:10:47;1.70;78.60
46926;DHT22;32667;48.248;-1.700;2022-12-10T02:13:21;1.70;78.70
46926;DHT22;32667;48.248;-1.700;2022-12-10T02:15:57;1.70;78.70
46926;DHT22;32667;48.248;-1.700;2022-12-10T02:20:57;1.60;78.50
46926;DHT22;32667;48.248;-1.700;2022-12-10T02:23:28;1.60;78.60
46926;DHT22;32667;48.248;-1.700;2022-12-10T02:29:22;1.60;78.80
46926;DHT22;32667;48.248;-1.700;2022-12-10T02:31:44;1.60;78.80
46926;DHT22;32667;48.248;-1.700;2022-12-10T02:34:14;1.60;78.70
46926;DHT22;32667;48.248;-1.700;2022-12-10T02:36:43;1.60;78.50
46926;DHT22;32667;48.248;-1.700;2022-12-10T02:39:13;1.70;78.50
46926;DHT22;32667;48.248;-1.700;2022-12-10T02:41:44;1.70;78.50
46926;DHT22;32667;48.248;-1.700;2022-12-10T02:44:14;1.70;78.50
46926;DHT22;32667;48.248;-1.700;2022-12-10T02:46:41;1.70;78.40
46926;DHT22;32667;48.248;-1.700;2022-12-10T02:49:08;1.70;78.30
46926;DHT22;32667;48.248;-1.700;2022-12-10T02:51:37;1.70;78.40
46926;DHT22;32667;48.248;-1.700;2022-12-10T02:54:06;1.70;78.50
46926;DHT22;32667;48.248;-1.700;2022-12-10T02:56:49;1.70;78.50
46926;DHT22;32667;48.248;-1.700;2022-12-10T02:59:28;1.70;78.60
46926;DHT22;32667;48.248;-1.700;2022-12-10T03:02:12;1.70;78.60
46926;DHT22;32667;48.248;-1.700;2022-12-10T03:04:57;1.80;78.70
46926;DHT22;32667;48.248;-1.700;2022-12-10T03:10:24;1.90;78.50
46926;DHT22;32667;48.248;-1.700;2022-12-10T03:12:51;1.90;78.30
46926;DHT22;32667;48.248;-1.700;2022-12-10T03:15:21;1.90;78.20
46926;DHT22;32667;48.248;-1.700;2022-12-10T03:17:49;1.90;78.10
46926;DHT22;32667;48.248;-1.700;2022-12-10T03:20:17;2.00;78.20
46926;DHT22;32667;48.248;-1.700;2022-12-10T03:22:45;2.00;78.10
46926;DHT22;32667;48.248;-1.700;2022-12-10T03:25:15;2.00;78.00
46926;DHT22;32667;48.248;-1.700;2022-12-10T03:27:43;2.00;78.00
46926;DHT22;32667;48.248;-1.700;2022-12-10T03:30:11;2.00;78.10
46926;DHT22;32667;48.248;-1.700;2022-12-10T03:32:37;2.00;78.20
46926;DHT22;32667;48.248;-1.700;2022-12-10T03:35:04;2.00;78.30
46926;DHT22;32667;48.248;-1.700;2022-12-10T03:37:34;2.00;78.30
46926;DHT22;32667;48.248;-1.700;2022-12-10T03:40:02;2.10;78.30
46926;DHT22;32667;48.248;-1.700;2022-12-10T03:42:28;2.10;78.20
46926;DHT22;32667;48.248;-1.700;2022-12-10T03:44:53;2.20;78.20
46926;DHT22;32667;48.248;-1.700;2022-12-10T03:47:19;2.20;78.00
46926;DHT22;32667;48.248;-1.700;2022-12-10T03:49:46;2.20;77.90
46926;DHT22;32667;48.248;-1.700;2022-12-10T03:52:12;2.20;77.80
46926;DHT22;32667;48.248;-1.700;2022-12-10T03:54:38;2.10;77.90
46926;DHT22;32667;48.248;-1.700;2022-12-10T03:57:03;2.00;78.20
46926;DHT22;32667;48.248;-1.700;2022-12-10T03:59:29;1.90;78.40
46926;DHT22;32667;48.248;-1.700;2022-12-10T04:01:55;1.80;78.50
46926;DHT22;32667;48.248;-1.700;2022-12-10T04:04:21;1.80;78.70
46926;DHT22;32667;48.248;-1.700;2022-12-10T04:06:46;1.70;78.70
46926;DHT22;32667;48.248;-1.700;2022-12-10T04:09:14;1.70;78.80
46926;DHT22;32667;48.248;-1.700;2022-12-10T04:11:40;1.70;78.90
46926;DHT22;32667;48.248;-1.700;2022-12-10T04:14:07;1.70;78.80
46926;DHT22;32667;48.248;-1.700;2022-12-10T04:16:51;1.70;78.80
46926;DHT22;32667;48.248;-1.700;2022-12-10T04:19:18;1.60;78.80
46926;DHT22;32667;48.248;-1.700;2022-12-10T04:21:45;1.60;78.90
46926;DHT22;32667;48.248;-1.700;2022-12-10T04:24:31;1.60;78.90
46926;DHT22;32667;48.248;-1.700;2022-12-10T04:27:27;1.60;78.90
46926;DHT22;32667;48.248;-1.700;2022-12-10T04:29:54;1.60;78.70
46926;DHT22;32667;48.248;-1.700;2022-12-10T04:32:21;1.70;78.70
46926;DHT22;32667;48.248;-1.700;2022-12-10T04:34:47;1.70;78.70
46926;DHT22;32667;48.248;-1.700;2022-12-10T04:37:14;1.70;78.60
46926;DHT22;32667;48.248;-1.700;2022-12-10T04:39:40;1.70;78.60
46926;DHT22;32667;48.248;-1.700;2022-12-10T04:42:06;1.80;78.60
46926;DHT22;32667;48.248;-1.700;2022-12-10T04:44:32;1.80;78.60
46926;DHT22;32667;48.248;-1.700;2022-12-10T04:46:58;1.80;78.50
46926;DHT22;32667;48.248;-1.700;2022-12-10T04:49:24;1.80;78.40
46926;DHT22;32667;48.248;-1.700;2022-12-10T04:51:50;1.80;78.30
46926;DHT22;32667;48.248;-1.700;2022-12-10T04:54:16;1.80;78.30
46926;DHT22;32667;48.248;-1.700;2022-12-10T04:56:42;1.90;78.40
46926;DHT22;32667;48.248;-1.700;2022-12-10T04:59:09;1.90;78.30
46926;DHT22;32667;48.248;-1.700;2022-12-10T05:01:35;1.90;78.30
46926;DHT22;32667;48.248;-1.700;2022-12-10T05:04:04;1.90;78.20
46926;DHT22;32667;48.248;-1.700;2022-12-10T05:06:30;1.90;78.10
46926;DHT22;32667;48.248;-1.700;2022-12-10T05:08:56;1.90;78.30
46926;DHT22;32667;48.248;-1.700;2022-12-10T05:11:24;1.80;78.30
46926;DHT22;32667;48.248;-1.700;2022-12-10T05:13:51;1.80;78.40
46926;DHT22;32667;48.248;-1.700;2022-12-10T05:16:19;1.80;78.40
46926;DHT22;32667;48.248;-1.700;2022-12-10T05:18:45;1.80;78.50
46926;DHT22;32667;48.248;-1.700;2022-12-10T05:21:16;1.80;78.50
46926;DHT22;32667;48.248;-1.700;2022-12-10T05:23:45;1.80;78.50
46926;DHT22;32667;48.248;-1.700;2022-12-10T05:26:16;1.80;78.50
46926;DHT22;32667;48.248;-1.700;2022-12-10T05:28:54;1.90;78.50
46926;DHT22;32667;48.248;-1.700;2022-12-10T05:31:25;2.00;78.40
46926;DHT22;32667;48.248;-1.700;2022-12-10T05:33:52;2.00;78.30
46926;DHT22;32667;48.248;-1.700;2022-12-10T05:36:20;2.10;78.10
46926;DHT22;32667;48.248;-1.700;2022-12-10T05:38:47;2.20;78.00
46926;DHT22;32667;48.248;-1.700;2022-12-10T05:41:16;2.20;77.80
46926;DHT22;32667;48.248;-1.700;2022-12-10T05:43:42;2.30;77.80
46926;DHT22;32667;48.248;-1.700;2022-12-10T05:46:14;2.30;77.80
46926;DHT22;32667;48.248;-1.700;2022-12-10T05:48:40;2.30;77.80
46926;DHT22;32667;48.248;-1.700;2022-12-10T05:51:08;2.30;77.80
46926;DHT22;32667;48.248;-1.700;2022-12-10T05:53:35;2.30;77.80
46926;DHT22;32667;48.248;-1.700;2022-12-10T05:56:03;2.40;77.70
46926;DHT22;32667;48.248;-1.700;2022-12-10T05:58:29;2.40;77.70
46926;DHT22;32667;48.248;-1.700;2022-12-10T06:00:56;2.40;77.70
46926;DHT22;32667;48.248;-1.700;2022-12-10T06:03:23;2.40;77.60
46926;DHT22;32667;48.248;-1.700;2022-12-10T06:05:48;2.30;77.60
46926;DHT22;32667;48.248;-1.700;2022-12-10T06:08:14;2.20;77.90
46926;DHT22;32667;48.248;-1.700;2022-12-10T06:10:40;2.10;78.10
46926;DHT22;32667;48.248;-1.700;2022-12-10T06:13:06;2.10;78.20
46926;DHT22;32667;48.248;-1.700;2022-12-10T06:15:32;2.20;78.20
46926;DHT22;32667;48.248;-1.700;2022-12-10T06:17:58;2.10;78.20
46926;DHT22;32667;48.248;-1.700;2022-12-10T06:20:25;2.10;78.10
46926;DHT22;32667;48.248;-1.700;2022-12-10T06:22:52;2.10;78.10
46926;DHT22;32667;48.248;-1.700;2022-12-10T06:25:18;2.10;78.10
46926;DHT22;32667;48.248;-1.700;2022-12-10T06:27:44;2.10;78.10
46926;DHT22;32667;48.248;-1.700;2022-12-10T06:30:10;2.10;78.10
46926;DHT22;32667;48.248;-1.700;2022-12-10T06:32:36;2.00;78.10
46926;DHT22;32667;48.248;-1.700;2022-12-10T06:35:03;2.00;78.20
46926;DHT22;32667;48.248;-1.700;2022-12-10T06:37:29;1.90;78.30
46926;DHT22;32667;48.248;-1.700;2022-12-10T06:39:55;1.90;78.40
46926;DHT22;32667;48.248;-1.700;2022-12-10T06:42:21;1.80;78.50
46926;DHT22;32667;48.248;-1.700;2022-12-10T06:44:46;1.80;78.50
46926;DHT22;32667;48.248;-1.700;2022-12-10T06:47:13;1.90;78.60
46926;DHT22;32667;48.248;-1.700;2022-12-10T06:49:40;1.90;78.40
46926;DHT22;32667;48.248;-1.700;2022-12-10T06:52:06;1.90;78.30
46926;DHT22;32667;48.248;-1.700;2022-12-10T06:54:33;1.90;78.30
46926;DHT22;32667;48.248;-1.700;2022-12-10T06:56:59;1.90;78.20
46926;DHT22;32667;48.248;-1.700;2022-12-10T06:59:24;1.80;78.20
46926;DHT22;32667;48.248;-1.700;2022-12-10T07:01:50;1.80;78.30
46926;DHT22;32667;48.248;-1.700;2022-12-10T07:04:16;1.70;78.50
46926;DHT22;32667;48.248;-1.700;2022-12-10T07:06:42;1.70;78.60
46926;DHT22;32667;48.248;-1.700;2022-12-10T07:09:08;1.70;78.70
46926;DHT22;32667;48.248;-1.700;2022-12-10T07:11:35;1.60;78.60
46926;DHT22;32667;48.248;-1.700;2022-12-10T07:14:01;1.60;78.70
46926;DHT22;32667;48.248;-1.700;2022-12-10T07:16:29;1.50;78.70
46926;DHT22;32667;48.248;-1.700;2022-12-10T07:18:56;1.50;78.80
46926;DHT22;32667;48.248;-1.700;2022-12-10T07:21:31;1.40;78.90
46926;DHT22;32667;48.248;-1.700;2022-12-10T07:24:00;1.40;78.80
46926;DHT22;32667;48.248;-1.700;2022-12-10T07:26:28;1.40;79.00
46926;DHT22;32667;48.248;-1.700;2022-12-10T07:28:54;1.30;79.60
46926;DHT22;32667;48.248;-1.700;2022-12-10T07:31:21;1.30;79.10
46926;DHT22;32667;48.248;-1.700;2022-12-10T07:33:48;1.30;79.10
46926;DHT22;32667;48.248;-1.700;2022-12-10T07:36:14;1.30;79.00
46926;DHT22;32667;48.248;-1.700;2022-12-10T07:38:40;1.40;79.00
46926;DHT22;32667;48.248;-1.700;2022-12-10T07:41:11;1.40;78.90
46926;DHT22;32667;48.248;-1.700;2022-12-10T07:43:39;1.40;79.00
46926;DHT22;32667;48.248;-1.700;2022-12-10T07:46:10;1.40;79.00
46926;DHT22;32667;48.248;-1.700;2022-12-10T07:48:37;1.30;78.90
46926;DHT22;32667;48.248;-1.700;2022-12-10T07:51:04;1.40;78.90
46926;DHT22;32667;48.248;-1.700;2022-12-10T07:53:30;1.40;78.80
46926;DHT22;32667;48.248;-1.700;2022-12-10T07:55:59;1.30;78.80
46926;DHT22;32667;48.248;-1.700;2022-12-10T07:58:25;1.40;78.90
46926;DHT22;32667;48.248;-1.700;2022-12-10T08:00:51;1.30;78.90
46926;DHT22;32667;48.248;-1.700;2022-12-10T08:03:16;1.30;78.80
46926;DHT22;32667;48.248;-1.700;2022-12-10T08:05:45;1.30;78.80
46926;DHT22;32667;48.248;-1.700;2022-12-10T08:08:10;1.40;78.90
46926;DHT22;32667;48.248;-1.700;2022-12-10T08:10:37;1.30;78.90
46926;DHT22;32667;48.248;-1.700;2022-12-10T08:13:04;1.40;78.90
46926;DHT22;32667;48.248;-1.700;2022-12-10T08:15:30;1.40;78.90
46926;DHT22;32667;48.248;-1.700;2022-12-10T08:17:57;1.50;78.80
46926;DHT22;32667;48.248;-1.700;2022-12-10T08:20:24;1.50;78.80
46926;DHT22;32667;48.248;-1.700;2022-12-10T08:22:50;1.50;78.70
46926;DHT22;32667;48.248;-1.700;2022-12-10T08:25:16;1.50;78.70
46926;DHT22;32667;48.248;-1.700;2022-12-10T08:27:45;1.50;78.70
46926;DHT22;32667;48.248;-1.700;2022-12-10T08:30:11;1.60;78.80
46926;DHT22;32667;48.248;-1.700;2022-12-10T08:32:37;1.60;78.80
46926;DHT22;32667;48.248;-1.700;2022-12-10T08:35:02;1.80;78.70
46926;DHT22;32667;48.248;-1.700;2022-12-10T08:37:28;1.80;78.40
46926;DHT22;32667;48.248;-1.700;2022-12-10T08:39:54;1.90;78.40
46926;DHT22;32667;48.248;-1.700;2022-12-10T08:42:20;1.90;78.40
46926;DHT22;32667;48.248;-1.700;2022-12-10T08:44:48;1.90;78.40
46926;DHT22;32667;48.248;-1.700;2022-12-10T08:47:16;1.90;78.50
46926;DHT22;32667;48.248;-1.700;2022-12-10T08:49:41;1.80;79.00
46926;DHT22;32667;48.248;-1.700;2022-12-10T08:52:07;1.70;78.60
46926;DHT22;32667;48.248;-1.700;2022-12-10T08:54:33;1.80;78.80
46926;DHT22;32667;48.248;-1.700;2022-12-10T08:56:59;1.90;78.90
46926;DHT22;32667;48.248;-1.700;2022-12-10T08:59:25;1.90;78.70
46926;DHT22;32667;48.248;-1.700;2022-12-10T09:01:53;2.00;78.40
46926;DHT22;32667;48.248;-1.700;2022-12-10T09:04:19;1.90;78.20
46926;DHT22;32667;48.248;-1.700;2022-12-10T09:06:45;1.80;78.60
46926;DHT22;32667;48.248;-1.700;2022-12-10T09:09:11;1.80;78.70
46926;DHT22;32667;48.248;-1.700;2022-12-10T09:11:37;1.90;78.70
46926;DHT22;32667;48.248;-1.700;2022-12-10T09:14:03;1.90;78.60
46926;DHT22;32667;48.248;-1.700;2022-12-10T09:16:35;1.80;79.10
46926;DHT22;32667;48.248;-1.700;2022-12-10T09:19:01;1.80;78.50
46926;DHT22;32667;48.248;-1.700;2022-12-10T09:21:28;1.70;78.70
46926;DHT22;32667;48.248;-1.700;2022-12-10T09:23:56;1.70;78.80
46926;DHT22;32667;48.248;-1.700;2022-12-10T09:26:22;1.70;78.90
46926;DHT22;32667;48.248;-1.700;2022-12-10T09:28:48;1.70;79.00
46926;DHT22;32667;48.248;-1.700;2022-12-10T09:31:15;1.80;78.90
46926;DHT22;32667;48.248;-1.700;2022-12-10T09:33:41;1.80;78.70
46926;DHT22;32667;48.248;-1.700;2022-12-10T09:36:09;1.90;78.70
46926;DHT22;32667;48.248;-1.700;2022-12-10T09:38:36;2.00;79.10
46926;DHT22;32667;48.248;-1.700;2022-12-10T09:41:20;2.00;78.30
46926;DHT22;32667;48.248;-1.700;2022-12-10T09:52:16;2.10;78.40
46926;DHT22;32667;48.248;-1.700;2022-12-10T09:54:50;2.10;78.20
46926;DHT22;32667;48.248;-1.700;2022-12-10T09:57:37;2.10;78.20
46926;DHT22;32667;48.248;-1.700;2022-12-10T10:02:39;2.20;78.10
46926;DHT22;32667;48.248;-1.700;2022-12-10T10:07:39;2.20;78.00
46926;DHT22;32667;48.248;-1.700;2022-12-10T10:10:26;2.30;78.00
46926;DHT22;32667;48.248;-1.700;2022-12-10T10:13:40;2.30;78.00
46926;DHT22;32667;48.248;-1.700;2022-12-10T10:15:43;2.50;78.00
46926;DHT22;32667;48.248;-1.700;2022-12-10T10:20:54;2.60;77.60
46926;DHT22;32667;48.248;-1.700;2022-12-10T10:23:20;2.70;77.60
46926;DHT22;32667;48.248;-1.700;2022-12-10T10:25:46;2.80;77.50
46926;DHT22;32667;48.248;-1.700;2022-12-10T10:28:18;2.80;77.50
46926;DHT22;32667;48.248;-1.700;2022-12-10T10:30:45;2.90;77.50
46926;DHT22;32667;48.248;-1.700;2022-12-10T10:33:13;3.00;77.30
46926;DHT22;32667;48.248;-1.700;2022-12-10T10:35:47;3.10;77.30
46926;DHT22;32667;48.248;-1.700;2022-12-10T10:38:19;3.20;77.20
46926;DHT22;32667;48.248;-1.700;2022-12-10T10:40:52;3.30;77.10
46926;DHT22;32667;48.248;-1.700;2022-12-10T10:43:26;3.40;76.90
46926;DHT22;32667;48.248;-1.700;2022-12-10T10:46:21;3.40;76.80
46926;DHT22;32667;48.248;-1.700;2022-12-10T10:48:49;3.50;76.80
46926;DHT22;32667;48.248;-1.700;2022-12-10T10:51:19;3.60;76.80
46926;DHT22;32667;48.248;-1.700;2022-12-10T10:53:50;3.70;76.70
46926;DHT22;32667;48.248;-1.700;2022-12-10T10:56:29;3.80;76.60
46926;DHT22;32667;48.248;-1.700;2022-12-10T11:01:42;4.00;76.20
46926;DHT22;32667;48.248;-1.700;2022-12-10T11:04:09;4.10;76.20
46926;DHT22;32667;48.248;-1.700;2022-12-10T11:06:35;4.20;76.20
46926;DHT22;32667;48.248;-1.700;2022-12-10T11:09:01;4.20;76.10
46926;DHT22;32667;48.248;-1.700;2022-12-10T11:11:40;4.30;76.10
46926;DHT22;32667;48.248;-1.700;2022-12-10T11:14:27;4.30;76.00
46926;DHT22;32667;48.248;-1.700;2022-12-10T11:19:36;4.40;76.10
46926;DHT22;32667;48.248;-1.700;2022-12-10T11:22:24;4.40;76.10
46926;DHT22;32667;48.248;-1.700;2022-12-10T11:24:50;4.40;76.10
46926;DHT22;32667;48.248;-1.700;2022-12-10T11:27:56;4.50;76.10
46926;DHT22;32667;48.248;-1.700;2022-12-10T11:30:26;4.60;76.10
46926;DHT22;32667;48.248;-1.700;2022-12-10T11:33:20;4.70;76.00
46926;DHT22;32667;48.248;-1.700;2022-12-10T11:41:54;4.90;75.80
46926;DHT22;32667;48.248;-1.700;2022-12-10T11:44:49;5.00;75.60
46926;DHT22;32667;48.248;-1.700;2022-12-10T11:50:15;5.20;75.50
46926;DHT22;32667;48.248;-1.700;2022-12-10T11:52:46;5.30;75.50
46926;DHT22;32667;48.248;-1.700;2022-12-10T11:55:39;5.30;75.30
46926;DHT22;32667;48.248;-1.700;2022-12-10T12:01:13;5.50;75.20
46926;DHT22;32667;48.248;-1.700;2022-12-10T12:09:47;5.80;75.20
46926;DHT22;32667;48.248;-1.700;2022-12-10T12:17:47;6.10;74.80
46926;DHT22;32667;48.248;-1.700;2022-12-10T12:20:46;6.10;74.60
46926;DHT22;32667;48.248;-1.700;2022-12-10T12:23:21;6.20;74.70
46926;DHT22;32667;48.248;-1.700;2022-12-10T12:25:59;6.20;74.60
46926;DHT22;32667;48.248;-1.700;2022-12-10T12:28:36;6.40;74.70
46926;DHT22;32667;48.248;-1.700;2022-12-10T12:31:11;6.50;74.60
46926;DHT22;32667;48.248;-1.700;2022-12-10T12:36:15;6.70;74.40
46926;DHT22;32667;48.248;-1.700;2022-12-10T12:41:57;7.00;74.20
46926;DHT22;32667;48.248;-1.700;2022-12-10T12:49:59;7.20;73.80
46926;DHT22;32667;48.248;-1.700;2022-12-10T12:52:30;7.30;73.70
46926;DHT22;32667;48.248;-1.700;2022-12-10T12:55:03;7.30;73.80
46926;DHT22;32667;48.248;-1.700;2022-12-10T12:57:46;7.40;74.50
46926;DHT22;32667;48.248;-1.700;2022-12-10T13:00:17;7.50;73.80
46926;DHT22;32667;48.248;-1.700;2022-12-10T13:03:00;7.60;73.80
46926;DHT22;32667;48.248;-1.700;2022-12-10T13:05:34;7.70;73.70
46926;DHT22;32667;48.248;-1.700;2022-12-10T13:13:36;8.10;73.60
46926;DHT22;32667;48.248;-1.700;2022-12-10T13:22:10;8.40;73.30
46926;DHT22;32667;48.248;-1.700;2022-12-10T13:46:40;9.10;73.00
46926;DHT22;32667;48.248;-1.700;2022-12-10T13:49:19;9.10;73.00
46926;DHT22;32667;48.248;-1.700;2022-12-10T13:54:40;9.00;73.30
46926;DHT22;32667;48.248;-1.700;2022-12-10T14:03:34;8.70;74.10
46926;DHT22;32667;48.248;-1.700;2022-12-10T14:06:09;8.60;74.20
46926;DHT22;32667;48.248;-1.700;2022-12-10T14:08:38;8.40;74.40
46926;DHT22;32667;48.248;-1.700;2022-12-10T14:11:14;8.40;74.70
46926;DHT22;32667;48.248;-1.700;2022-12-10T14:13:46;8.20;74.80
46926;DHT22;32667;48.248;-1.700;2022-12-10T14:16:14;8.10;75.00
46926;DHT22;32667;48.248;-1.700;2022-12-10T14:18:48;8.00;75.80
46926;DHT22;32667;48.248;-1.700;2022-12-10T14:21:16;8.00;75.40
46926;DHT22;32667;48.248;-1.700;2022-12-10T14:23:45;7.90;75.50
46926;DHT22;32667;48.248;-1.700;2022-12-10T14:26:15;7.80;75.60
46926;DHT22;32667;48.248;-1.700;2022-12-10T14:28:45;7.80;75.60
46926;DHT22;32667;48.248;-1.700;2022-12-10T14:31:21;7.80;75.50
46926;DHT22;32667;48.248;-1.700;2022-12-10T14:33:59;7.80;75.50
46926;DHT22;32667;48.248;-1.700;2022-12-10T14:36:32;7.80;75.50
46926;DHT22;32667;48.248;-1.700;2022-12-10T14:38:59;7.70;75.50
46926;DHT22;32667;48.248;-1.700;2022-12-10T14:41:29;7.70;75.60
46926;DHT22;32667;48.248;-1.700;2022-12-10T14:43:58;7.70;75.70
46926;DHT22;32667;48.248;-1.700;2022-12-10T14:46:32;7.60;75.70
46926;DHT22;32667;48.248;-1.700;2022-12-10T14:48:58;7.60;75.80
46926;DHT22;32667;48.248;-1.700;2022-12-10T14:51:26;7.60;75.80
46926;DHT22;32667;48.248;-1.700;2022-12-10T14:53:53;7.60;75.80
46926;DHT22;32667;48.248;-1.700;2022-12-10T14:56:32;7.60;75.80
46926;DHT22;32667;48.248;-1.700;2022-12-10T14:59:07;7.50;75.80
46926;DHT22;32667;48.248;-1.700;2022-12-10T15:01:40;7.50;75.70
46926;DHT22;32667;48.248;-1.700;2022-12-10T15:04:11;7.50;75.70
46926;DHT22;32667;48.248;-1.700;2022-12-10T15:06:41;7.50;75.80
46926;DHT22;32667;48.248;-1.700;2022-12-10T15:09:18;7.40;75.70
46926;DHT22;32667;48.248;-1.700;2022-12-10T15:11:44;7.50;75.80
46926;DHT22;32667;48.248;-1.700;2022-12-10T15:14:17;7.50;75.80
46926;DHT22;32667;48.248;-1.700;2022-12-10T15:16:45;7.40;75.70
46926;DHT22;32667;48.248;-1.700;2022-12-10T15:21:48;7.30;75.80
46926;DHT22;32667;48.248;-1.700;2022-12-10T15:24:26;7.30;75.90
46926;DHT22;32667;48.248;-1.700;2022-12-10T15:26:52;7.20;76.00
46926;DHT22;32667;48.248;-1.700;2022-12-10T15:31:48;7.00;76.20
46926;DHT22;32667;48.248;-1.700;2022-12-10T15:34:15;6.90;76.30
46926;DHT22;32667;48.248;-1.700;2022-12-10T15:39:18;6.70;76.60
46926;DHT22;32667;48.248;-1.700;2022-12-10T15:44:37;6.70;76.70
46926;DHT22;32667;48.248;-1.700;2022-12-10T15:47:19;6.70;76.60
46926;DHT22;32667;48.248;-1.700;2022-12-10T15:49:46;6.70;76.50
46926;DHT22;32667;48.248;-1.700;2022-12-10T15:52:20;6.70;76.50
46926;DHT22;32667;48.248;-1.700;2022-12-10T15:54:49;6.60;76.50
46926;DHT22;32667;48.248;-1.700;2022-12-10T15:57:27;6.60;76.50
46926;DHT22;32667;48.248;-1.700;2022-12-10T15:59:56;6.60;76.50
46926;DHT22;32667;48.248;-1.700;2022-12-10T16:03:00;6.50;76.40
46926;DHT22;32667;48.248;-1.700;2022-12-10T16:05:34;6.50;76.50
46926;DHT22;32667;48.248;-1.700;2022-12-10T16:08:23;6.40;76.40
46926;DHT22;32667;48.248;-1.700;2022-12-10T16:10:50;6.40;76.50
46926;DHT22;32667;48.248;-1.700;2022-12-10T16:13:22;6.30;76.50
46926;DHT22;32667;48.248;-1.700;2022-12-10T16:15:51;6.30;76.60
46926;DHT22;32667;48.248;-1.700;2022-12-10T16:18:17;6.20;76.60
46926;DHT22;32667;48.248;-1.700;2022-12-10T16:20:43;6.00;76.70
46926;DHT22;32667;48.248;-1.700;2022-12-10T16:23:09;5.90;76.90
46926;DHT22;32667;48.248;-1.700;2022-12-10T16:25:37;5.90;77.20
46926;DHT22;32667;48.248;-1.700;2022-12-10T16:28:09;5.80;77.20
46926;DHT22;32667;48.248;-1.700;2022-12-10T16:30:38;5.80;77.20
46926;DHT22;32667;48.248;-1.700;2022-12-10T16:33:06;5.80;77.20
46926;DHT22;32667;48.248;-1.700;2022-12-10T16:35:31;5.70;77.10
46926;DHT22;32667;48.248;-1.700;2022-12-10T16:37:57;5.70;77.10
46926;DHT22;32667;48.248;-1.700;2022-12-10T16:40:26;5.70;77.00
46926;DHT22;32667;48.248;-1.700;2022-12-10T16:42:56;5.70;77.00
46926;DHT22;32667;48.248;-1.700;2022-12-10T16:45:24;5.60;77.00
46926;DHT22;32667;48.248;-1.700;2022-12-10T16:47:50;5.50;77.00
46926;DHT22;32667;48.248;-1.700;2022-12-10T16:50:17;5.50;77.00
46926;DHT22;32667;48.248;-1.700;2022-12-10T16:52:43;5.50;77.10
46926;DHT22;32667;48.248;-1.700;2022-12-10T16:55:18;5.40;77.20
46926;DHT22;32667;48.248;-1.700;2022-12-10T16:57:46;5.40;77.20
46926;DHT22;32667;48.248;-1.700;2022-12-10T17:00:16;5.30;77.20
46926;DHT22;32667;48.248;-1.700;2022-12-10T17:02:43;5.30;77.20
46926;DHT22;32667;48.248;-1.700;2022-12-10T17:05:31;5.30;77.20
46926;DHT22;32667;48.248;-1.700;2022-12-10T17:07:57;5.30;77.30
46926;DHT22;32667;48.248;-1.700;2022-12-10T17:10:24;5.20;77.10
46926;DHT22;32667;48.248;-1.700;2022-12-10T17:13:13;5.20;77.10
46926;DHT22;32667;48.248;-1.700;2022-12-10T17:15:40;5.20;77.10
46926;DHT22;32667;48.248;-1.700;2022-12-10T17:18:12;5.20;77.10
46926;DHT22;32667;48.248;-1.700;2022-12-10T17:20:38;5.10;77.10
46926;DHT22;32667;48.248;-1.700;2022-12-10T17:23:04;5.10;77.10
46926;DHT22;32667;48.248;-1.700;2022-12-10T17:25:30;5.00;77.10
46926;DHT22;32667;48.248;-1.700;2022-12-10T17:27:56;5.00;77.10
46926;DHT22;32667;48.248;-1.700;2022-12-10T17:30:22;5.00;77.20
46926;DHT22;32667;48.248;-1.700;2022-12-10T17:32:49;5.00;77.20
46926;DHT22;32667;48.248;-1.700;2022-12-10T17:35:15;4.90;77.20
46926;DHT22;32667;48.248;-1.700;2022-12-10T17:37:41;4.90;77.20
46926;DHT22;32667;48.248;-1.700;2022-12-10T17:40:17;4.90;77.20
46926;DHT22;32667;48.248;-1.700;2022-12-10T17:42:45;4.80;77.20
46926;DHT22;32667;48.248;-1.700;2022-12-10T17:45:12;4.80;77.30
46926;DHT22;32667;48.248;-1.700;2022-12-10T17:47:39;4.80;77.30
46926;DHT22;32667;48.248;-1.700;2022-12-10T17:50:30;4.70;77.30
46926;DHT22;32667;48.248;-1.700;2022-12-10T17:52:58;4.60;77.30
46926;DHT22;32667;48.248;-1.700;2022-12-10T17:55:26;4.60;77.30
46926;DHT22;32667;48.248;-1.700;2022-12-10T17:57:52;4.60;77.40